Time;durP1;ratioP1;P1;durP2;ratioP2;P2;SDS_P1;SDS_P2;PMS_P1;PMS_P2;Temp;Humidity;BMP_temperature;BMP_pressure;BME280_temperature;BME280_humidity;BME280_pressure;Samples;Min_cycle;Max_cycle;Signal;HPM_P1;HPM_P2
2021/09/18 00:00:24;;;;;;;4.72;1.90;;;18.60;67.40;;;;;;5040337;28;20022;-74
2021/09/18 00:02:50;;;;;;;4.25;2.28;;;18.60;67.10;;;;;;5040286;28;20053;-75
2021/09/18 00:05:16;;;;;;;4.47;1.90;;;18.60;67.70;;;;;;5040319;28;20664;-74
2021/09/18 00:07:42;;;;;;;4.40;2.13;;;18.60;67.30;;;;;;5040225;28;20063;-75
2021/09/18 00:10:08;;;;;;;3.97;2.05;;;18.60;67.50;;;;;;5040314;28;20025;-74
2021/09/18 00:12:34;;;;;;;3.97;2.05;;;18.60;67.80;;;;;;5040051;28;20395;-74
2021/09/18 00:15:01;;;;;;;6.18;2.30;;;18.60;67.40;;;;;;5040259;28;20104;-74
2021/09/18 00:17:28;;;;;;;6.40;2.30;;;18.60;68.20;;;;;;5040054;28;20476;-74
2021/09/18 00:19:53;;;;;;;5.68;2.10;;;18.50;68.90;;;;;;5040089;28;20021;-74
2021/09/18 00:22:19;;;;;;;5.85;2.35;;;18.50;68.50;;;;;;5039893;28;20037;-74
2021/09/18 00:24:45;;;;;;;3.35;1.73;;;18.50;68.60;;;;;;5040102;28;20025;-74
2021/09/18 00:27:11;;;;;;;4.55;2.20;;;18.40;68.40;;;;;;5039836;28;20036;-74
2021/09/18 00:29:37;;;;;;;3.25;1.95;;;18.40;68.60;;;;;;5040019;28;20025;-74
2021/09/18 00:32:04;;;;;;;5.93;2.72;;;18.40;68.40;;;;;;5038340;28;20113;-74
2021/09/18 00:34:30;;;;;;;7.20;2.45;;;18.30;68.90;;;;;;5039781;28;20070;-74
2021/09/18 00:36:56;;;;;;;5.05;2.25;;;18.30;68.80;;;;;;5039428;28;20558;-74
2021/09/18 00:39:22;;;;;;;5.05;2.35;;;18.30;68.80;;;;;;5038358;28;20026;-74
2021/09/18 00:41:48;;;;;;;5.35;2.42;;;18.30;68.70;;;;;;5039584;28;20049;-74
2021/09/18 00:44:18;;;;;;;5.07;2.25;;;18.30;68.90;;;;;;5038530;28;20018;-74
2021/09/18 00:46:45;;;;;;;5.88;2.33;;;18.30;68.40;;;;;;5039839;28;20503;-74
2021/09/18 00:49:12;;;;;;;4.47;2.33;;;18.30;68.40;;;;;;5039518;28;20068;-74
2021/09/18 00:51:38;;;;;;;5.20;2.15;;;18.30;68.50;;;;;;5039468;28;20026;-75
2021/09/18 00:54:05;;;;;;;4.07;2.40;;;18.30;68.50;;;;;;5039353;28;20114;-74
2021/09/18 00:56:31;;;;;;;4.45;2.20;;;18.30;68.70;;;;;;5039522;28;20048;-74
2021/09/18 00:58:57;;;;;;;4.18;2.05;;;18.30;68.30;;;;;;5039680;28;20022;-74
2021/09/18 01:01:22;;;;;;;4.85;2.13;;;18.30;68.70;;;;;;5038171;28;20026;-75
2021/09/18 01:03:48;;;;;;;5.85;2.20;;;18.30;68.80;;;;;;5039325;28;20018;-74
2021/09/18 01:06:14;;;;;;;4.50;2.45;;;18.30;68.70;;;;;;5039022;28;20026;-74
2021/09/18 01:08:42;;;;;;;6.10;2.45;;;18.30;68.90;;;;;;5039186;28;20097;-74
2021/09/18 01:11:08;;;;;;;4.70;2.35;;;18.30;69.50;;;;;;5039081;28;20029;-74
2021/09/18 01:13:34;;;;;;;4.18;2.20;;;18.30;69.10;;;;;;5039004;28;20033;-74
2021/09/18 01:16:00;;;;;;;5.07;2.30;;;18.30;68.80;;;;;;5039200;28;20108;-74
2021/09/18 01:18:26;;;;;;;3.72;2.10;;;18.20;68.70;;;;;;5039003;28;20056;-74
2021/09/18 01:20:52;;;;;;;4.13;2.30;;;18.30;69.00;;;;;;5038887;28;20030;-74
2021/09/18 01:23:21;;;;;;;4.00;2.33;;;18.20;69.20;;;;;;5038935;28;20083;-74
2021/09/18 01:25:48;;;;;;;4.05;2.13;;;18.20;69.20;;;;;;5038677;28;20396;-75
2021/09/18 01:28:15;;;;;;;4.78;2.65;;;18.20;68.70;;;;;;5038918;28;20068;-75
2021/09/18 01:30:41;;;;;;;4.57;2.63;;;18.20;69.00;;;;;;5038890;28;20022;-75
2021/09/18 01:33:09;;;;;;;5.00;2.80;;;18.20;69.10;;;;;;5038794;28;20476;-75
2021/09/18 01:35:35;;;;;;;3.95;2.33;;;18.20;69.10;;;;;;5038471;28;20411;-75
2021/09/18 01:38:02;;;;;;;4.65;2.25;;;18.20;69.10;;;;;;5038555;28;20090;-75
2021/09/18 01:40:33;;;;;;;3.88;2.15;;;18.20;69.10;;;;;;5038770;28;20040;-75
2021/09/18 01:42:59;;;;;;;4.70;2.30;;;18.20;69.10;;;;;;5038490;28;20490;-75
2021/09/18 01:45:25;;;;;;;5.25;3.00;;;18.20;68.70;;;;;;5038616;28;20109;-75
2021/09/18 01:47:57;;;;;;;4.35;2.30;;;18.10;69.30;;;;;;5037157;28;20028;-75
2021/09/18 01:50:26;;;;;;;5.10;2.15;;;18.10;69.20;;;;;;5038449;28;20048;-75
2021/09/18 01:52:57;;;;;;;5.45;3.08;;;18.20;69.20;;;;;;5038191;28;20483;-75
2021/09/18 01:55:24;;;;;;;5.43;2.70;;;18.10;69.10;;;;;;5038221;28;20027;-75
2021/09/18 01:57:53;;;;;;;4.70;2.47;;;18.10;70.00;;;;;;5038408;28;20036;-75
2021/09/18 02:00:19;;;;;;;6.65;2.83;;;18.10;69.70;;;;;;5038227;28;20083;-75
2021/09/18 02:02:45;;;;;;;4.97;2.45;;;18.10;69.70;;;;;;5038057;28;20530;-75
2021/09/18 02:05:13;;;;;;;3.90;2.38;;;18.10;69.80;;;;;;5038088;28;20031;-75
2021/09/18 02:07:39;;;;;;;3.90;2.00;;;18.10;69.90;;;;;;5038022;28;20108;-74
2021/09/18 02:10:07;;;;;;;4.03;2.22;;;18.10;69.70;;;;;;5038014;28;20057;-75
2021/09/18 02:12:33;;;;;;;3.72;2.03;;;18.10;69.60;;;;;;5036562;28;20518;-74
2021/09/18 02:14:59;;;;;;;5.25;2.38;;;18.10;69.90;;;;;;5036989;28;20037;-75
2021/09/18 02:17:24;;;;;;;4.85;2.60;;;18.10;70.10;;;;;;5037853;28;20085;-74
2021/09/18 02:19:50;;;;;;;3.95;2.10;;;18.10;70.10;;;;;;5037709;28;20391;-75
2021/09/18 02:22:16;;;;;;;3.58;2.10;;;18.10;70.00;;;;;;5037722;28;20025;-74
2021/09/18 02:24:42;;;;;;;3.53;2.10;;;18.10;70.20;;;;;;5037778;28;20033;-75
2021/09/18 02:27:08;;;;;;;4.00;2.08;;;18.10;69.90;;;;;;5037657;28;20052;-75
2021/09/18 02:29:33;;;;;;;3.63;1.90;;;18.00;69.70;;;;;;5037824;28;20460;-75
2021/09/18 02:31:59;;;;;;;5.68;2.22;;;18.10;71.00;;;;;;5037488;28;20060;-75
2021/09/18 02:34:25;;;;;;;3.75;1.98;;;18.00;70.90;;;;;;5037740;28;20373;-75
2021/09/18 02:36:51;;;;;;;5.20;1.83;;;18.00;70.30;;;;;;5037334;28;20442;-75
2021/09/18 02:39:17;;;;;;;3.70;2.00;;;18.00;70.50;;;;;;5037752;28;20087;-75
2021/09/18 02:41:43;;;;;;;5.35;2.72;;;18.00;69.90;;;;;;5037625;28;20026;-75
2021/09/18 02:44:08;;;;;;;4.82;2.05;;;18.00;71.70;;;;;;5037545;28;20036;-75
2021/09/18 02:46:34;;;;;;;3.97;2.25;;;18.00;70.50;;;;;;5037429;28;20025;-74
2021/09/18 02:49:00;;;;;;;5.15;2.45;;;18.00;70.30;;;;;;5037725;28;20025;-74
2021/09/18 02:51:26;;;;;;;4.45;1.95;;;18.00;71.00;;;;;;5037127;28;20108;-75
2021/09/18 02:53:52;;;;;;;4.50;2.00;;;17.90;71.00;;;;;;5037430;28;20060;-74
2021/09/18 02:56:18;;;;;;;3.63;1.67;;;17.90;71.20;;;;;;5037359;28;20052;-74
2021/09/18 02:58:44;;;;;;;4.97;2.00;;;17.90;70.40;;;;;;5037445;28;20025;-75
2021/09/18 03:01:10;;;;;;;3.47;1.90;;;17.90;70.00;;;;;;5037472;28;20052;-74
2021/09/18 03:03:35;;;;;;;3.30;1.90;;;17.90;70.00;;;;;;5037339;28;20021;-75
2021/09/18 03:06:01;;;;;;;3.67;2.20;;;17.80;70.80;;;;;;5037125;28;20030;-74
2021/09/18 03:08:27;;;;;;;3.90;1.90;;;17.80;71.30;;;;;;5040077;28;20051;-74
2021/09/18 03:10:53;;;;;;;3.33;1.85;;;17.80;71.30;;;;;;5041266;28;20022;-75
2021/09/18 03:13:19;;;;;;;3.90;2.03;;;17.80;70.80;;;;;;5040035;28;20028;-75
2021/09/18 03:15:44;;;;;;;5.47;1.88;;;17.80;70.50;;;;;;5041257;28;20443;-75
2021/09/18 03:18:10;;;;;;;4.93;2.10;;;17.80;70.20;;;;;;5041526;28;20026;-74
2021/09/18 03:20:36;;;;;;;6.03;2.63;;;17.80;71.30;;;;;;5040910;28;20042;-74
2021/09/18 03:23:02;;;;;;;4.63;1.83;;;17.80;71.30;;;;;;5041273;28;20060;-74
2021/09/18 03:25:28;;;;;;;5.43;1.95;;;17.80;71.10;;;;;;5040779;28;20483;-74
2021/09/18 03:27:54;;;;;;;4.20;1.80;;;17.70;70.80;;;;;;5041247;28;20030;-74
2021/09/18 03:30:20;;;;;;;3.88;2.40;;;17.80;70.60;;;;;;5040982;28;20029;-74
2021/09/18 03:32:45;;;;;;;6.35;1.85;;;17.80;71.10;;;;;;5039686;28;20022;-74
2021/09/18 03:35:11;;;;;;;3.75;1.65;;;17.70;70.40;;;;;;5040598;28;20067;-74
2021/09/18 03:37:37;;;;;;;4.22;2.38;;;17.70;70.90;;;;;;5041188;28;20052;-75
2021/09/18 03:40:10;;;;;;;4.00;2.20;;;17.70;70.30;;;;;;5040814;28;20033;-74
2021/09/18 03:42:36;;;;;;;4.03;2.22;;;17.70;70.40;;;;;;5040788;28;20028;-74
2021/09/18 03:45:02;;;;;;;4.30;2.10;;;17.70;70.30;;;;;;5040584;28;20057;-74
2021/09/18 03:47:28;;;;;;;3.88;2.15;;;17.70;70.80;;;;;;5040906;28;20017;-74
2021/09/18 03:49:54;;;;;;;4.28;2.10;;;17.70;70.50;;;;;;5040548;28;20128;-75
2021/09/18 03:52:20;;;;;;;4.07;2.00;;;17.70;70.10;;;;;;5040669;28;20449;-74
2021/09/18 03:54:46;;;;;;;3.70;1.90;;;17.60;69.90;;;;;;5040398;28;20025;-75
2021/09/18 03:57:12;;;;;;;3.53;2.00;;;17.70;70.40;;;;;;5040632;28;20025;-75
2021/09/18 03:59:38;;;;;;;4.20;2.20;;;17.70;70.90;;;;;;5040355;28;20032;-75
2021/09/18 04:02:04;;;;;;;3.90;2.10;;;17.60;70.30;;;;;;5039196;28;20021;-75
2021/09/18 04:04:30;;;;;;;3.85;2.10;;;17.60;70.10;;;;;;5040277;28;20033;-75
2021/09/18 04:06:55;;;;;;;5.60;2.30;;;17.60;70.80;;;;;;5040207;28;20068;-75
2021/09/18 04:09:21;;;;;;;4.53;2.15;;;17.60;70.70;;;;;;5040130;28;20032;-75
2021/09/18 04:11:47;;;;;;;4.75;2.30;;;17.60;70.50;;;;;;5040361;28;20545;-75
2021/09/18 04:14:13;;;;;;;4.05;2.13;;;17.60;70.70;;;;;;5040269;28;20104;-75
2021/09/18 04:16:39;;;;;;;3.63;2.28;;;17.60;71.30;;;;;;5040471;28;20017;-75
2021/09/18 04:19:04;;;;;;;4.45;2.70;;;17.60;71.80;;;;;;5039948;28;20392;-75
2021/09/18 04:21:30;;;;;;;5.28;2.80;;;17.50;71.80;;;;;;5040038;28;20028;-75
2021/09/18 04:23:56;;;;;;;5.07;2.45;;;17.50;71.50;;;;;;5039895;28;20044;-75
2021/09/18 04:26:22;;;;;;;4.50;2.42;;;17.50;71.80;;;;;;5039933;28;20034;-75
2021/09/18 04:28:48;;;;;;;4.38;2.60;;;17.50;72.00;;;;;;5039953;28;20081;-74
2021/09/18 04:31:14;;;;;;;4.43;2.78;;;17.50;71.90;;;;;;5040206;28;20542;-75
2021/09/18 04:33:39;;;;;;;4.50;2.83;;;17.50;72.00;;;;;;5039559;28;20024;-75
2021/09/18 04:36:05;;;;;;;4.70;2.50;;;17.50;71.70;;;;;;5039877;28;20547;-75
2021/09/18 04:38:31;;;;;;;5.25;2.50;;;17.50;71.40;;;;;;5039591;28;20030;-75
2021/09/18 04:40:58;;;;;;;3.90;2.47;;;17.40;71.20;;;;;;5039930;28;20049;-75
2021/09/18 04:43:24;;;;;;;5.72;2.72;;;17.40;71.10;;;;;;5039611;28;20029;-75
2021/09/18 04:45:51;;;;;;;4.15;2.50;;;17.40;71.40;;;;;;5039713;28;20025;-74
2021/09/18 04:48:17;;;;;;;4.50;2.63;;;17.40;72.20;;;;;;5039437;28;20404;-74
2021/09/18 04:50:43;;;;;;;5.07;2.40;;;17.40;72.20;;;;;;5039513;28;20021;-74
2021/09/18 04:53:09;;;;;;;5.55;2.75;;;17.40;72.00;;;;;;5039425;28;20504;-74
2021/09/18 04:55:35;;;;;;;4.57;2.70;;;17.40;71.90;;;;;;5039446;28;20029;-74
2021/09/18 04:58:01;;;;;;;4.72;3.08;;;17.40;72.60;;;;;;5039530;28;20028;-74
2021/09/18 05:00:27;;;;;;;4.50;2.75;;;17.40;72.70;;;;;;5039303;28;20053;-74
2021/09/18 05:02:52;;;;;;;3.97;2.25;;;17.40;72.30;;;;;;5039130;28;20037;-74
2021/09/18 05:05:18;;;;;;;5.15;2.97;;;17.40;72.10;;;;;;5039108;28;20029;-74
2021/09/18 05:07:44;;;;;;;3.75;2.28;;;17.40;71.70;;;;;;5039102;28;20045;-75
2021/09/18 05:10:10;;;;;;;6.28;2.78;;;17.40;71.70;;;;;;5039157;28;20105;-75
2021/09/18 05:12:36;;;;;;;6.05;2.97;;;17.40;71.90;;;;;;5038973;28;20017;-75
2021/09/18 05:15:03;;;;;;;4.80;2.65;;;17.40;72.70;;;;;;5037792;28;20105;-74
2021/09/18 05:17:29;;;;;;;4.28;2.70;;;17.30;71.70;;;;;;5038892;28;20025;-75
2021/09/18 05:19:55;;;;;;;6.47;2.53;;;17.30;71.70;;;;;;5038843;28;20064;-75
2021/09/18 05:22:20;;;;;;;4.65;2.72;;;17.30;71.70;;;;;;5038857;28;20026;-75
2021/09/18 05:24:46;;;;;;;5.10;2.90;;;17.30;71.80;;;;;;5038967;28;20052;-75
2021/09/18 05:27:12;;;;;;;6.43;3.00;;;17.30;71.90;;;;;;5038689;28;20032;-77
2021/09/18 05:29:39;;;;;;;5.22;2.88;;;17.30;72.20;;;;;;5038767;28;20021;-76
2021/09/18 05:32:05;;;;;;;5.82;2.70;;;17.30;72.60;;;;;;5038066;28;20515;-75
2021/09/18 05:34:31;;;;;;;5.15;2.90;;;17.20;72.20;;;;;;5038907;28;20033;-75
2021/09/18 05:36:57;;;;;;;4.18;2.60;;;17.20;72.60;;;;;;5037095;28;20112;-76
2021/09/18 05:39:22;;;;;;;4.32;2.58;;;17.20;71.70;;;;;;5037303;28;20017;-76
2021/09/18 05:41:48;;;;;;;3.88;2.50;;;17.20;71.60;;;;;;5038467;28;20388;-76
2021/09/18 05:44:14;;;;;;;4.63;2.72;;;17.20;71.70;;;;;;5038535;28;20365;-76
2021/09/18 05:46:40;;;;;;;4.32;2.95;;;17.20;72.50;;;;;;5038423;28;20021;-76
2021/09/18 05:49:06;;;;;;;4.50;2.80;;;17.10;71.90;;;;;;5038671;28;20021;-76
2021/09/18 05:51:31;;;;;;;5.35;2.60;;;17.10;71.70;;;;;;5036794;28;20032;-74
2021/09/18 05:53:57;;;;;;;5.10;2.90;;;17.10;71.70;;;;;;5038375;28;20021;-74
2021/09/18 05:56:23;;;;;;;4.80;3.03;;;17.10;72.50;;;;;;5038254;28;20057;-73
2021/09/18 05:58:49;;;;;;;5.32;3.15;;;17.10;72.60;;;;;;5038299;28;20506;-73
2021/09/18 06:01:14;;;;;;;5.82;3.20;;;17.10;72.50;;;;;;5038063;28;20105;-74
2021/09/18 06:03:40;;;;;;;5.88;3.05;;;17.10;72.60;;;;;;5038242;28;20026;-74
2021/09/18 06:06:06;;;;;;;6.25;3.22;;;17.10;72.50;;;;;;5037778;28;20033;-74
2021/09/18 06:08:32;;;;;;;4.85;2.80;;;17.10;72.60;;;;;;5038112;28;20044;-74
2021/09/18 06:10:59;;;;;;;6.53;3.30;;;17.10;72.30;;;;;;5038117;28;20032;-74
2021/09/18 06:13:25;;;;;;;5.68;3.13;;;17.10;72.70;;;;;;5038207;28;20018;-73
2021/09/18 06:15:50;;;;;;;4.82;3.10;;;17.10;72.60;;;;;;5036633;28;20387;-74
2021/09/18 06:18:16;;;;;;;6.90;3.30;;;17.10;72.30;;;;;;5037990;28;20021;-74
2021/09/18 06:20:42;;;;;;;5.18;3.00;;;17.10;72.40;;;;;;5037696;28;20099;-75
2021/09/18 06:23:08;;;;;;;5.85;3.45;;;17.10;72.80;;;;;;5037903;28;20132;-74
2021/09/18 06:25:34;;;;;;;6.13;3.38;;;17.10;72.70;;;;;;5037465;28;20112;-75
2021/09/18 06:27:59;;;;;;;5.30;2.78;;;17.20;72.70;;;;;;5037795;28;20028;-74
2021/09/18 06:30:25;;;;;;;5.50;3.38;;;17.10;72.30;;;;;;5037757;28;20033;-73
2021/09/18 06:32:51;;;;;;;7.38;3.45;;;17.20;72.40;;;;;;5038069;28;20055;-73
2021/09/18 06:35:17;;;;;;;6.05;3.33;;;17.20;72.70;;;;;;5037193;28;20068;-74
2021/09/18 06:37:44;;;;;;;6.22;3.28;;;17.20;73.20;;;;;;5037871;28;20107;-72
2021/09/18 06:40:17;;;;;;;6.32;3.70;;;17.20;73.00;;;;;;5037365;28;20103;-73
2021/09/18 06:42:43;;;;;;;5.13;3.15;;;17.20;72.60;;;;;;5036874;28;20104;-77
2021/09/18 06:45:10;;;;;;;8.07;3.40;;;17.20;72.80;;;;;;5037435;28;20395;-74
2021/09/18 06:47:36;;;;;;;11.77;3.53;;;17.20;72.90;;;;;;5036242;28;20040;-75
2021/09/18 06:50:04;;;;;;;6.50;3.67;;;17.20;72.70;;;;;;5037496;28;20480;-74
2021/09/18 06:52:30;;;;;;;5.70;2.90;;;17.20;72.80;;;;;;5036019;28;20017;-75
2021/09/18 06:54:56;;;;;;;5.63;3.20;;;17.20;72.60;;;;;;5036216;28;20029;-76
2021/09/18 06:57:22;;;;;;;6.50;3.58;;;17.30;72.60;;;;;;5037467;28;20037;-79
2021/09/18 06:59:48;;;;;;;5.03;3.15;;;17.30;73.00;;;;;;5036367;28;20041;-78
2021/09/18 07:02:14;;;;;;;6.57;3.60;;;17.30;73.30;;;;;;5036236;28;20164;-77
2021/09/18 07:04:40;;;;;;;6.03;3.45;;;17.30;73.30;;;;;;5037164;28;20033;-78
2021/09/18 07:07:06;;;;;;;5.60;3.22;;;17.30;72.80;;;;;;5016908;28;20108;-76
2021/09/18 07:09:32;;;;;;;5.82;3.20;;;17.40;72.90;;;;;;5037525;28;20085;-81
2021/09/18 07:11:58;;;;;;;6.72;3.88;;;17.40;72.60;;;;;;5037334;28;20100;-77
2021/09/18 07:14:24;;;;;;;6.68;3.75;;;17.40;73.40;;;;;;5037611;28;20048;-77
2021/09/18 07:16:50;;;;;;;7.07;4.25;;;17.40;73.20;;;;;;5037123;28;20098;-76
2021/09/18 07:19:15;;;;;;;6.47;4.38;;;17.50;73.50;;;;;;5037363;28;20072;-77
2021/09/18 07:21:42;;;;;;;7.25;4.20;;;17.50;73.60;;;;;;5035548;28;20023;-79
2021/09/18 07:24:09;;;;;;;6.70;4.28;;;17.50;73.10;;;;;;5037122;28;20030;-81
2021/09/18 07:26:36;;;;;;;8.02;5.25;;;17.60;73.40;;;;;;5036004;28;20057;-76
2021/09/18 07:29:04;;;;;;;5.80;4.30;;;17.60;73.60;;;;;;5037280;28;20029;-80
2021/09/18 07:31:31;;;;;;;6.53;4.47;;;17.60;73.50;;;;;;5036985;28;20072;-75
2021/09/18 07:33:57;;;;;;;6.88;4.43;;;17.60;73.70;;;;;;5035711;28;20042;-79
2021/09/18 07:36:23;;;;;;;5.63;4.13;;;17.60;73.70;;;;;;5036662;28;20048;-77
2021/09/18 07:38:49;;;;;;;8.43;5.72;;;17.70;74.20;;;;;;5036552;28;20030;-84
2021/09/18 07:41:15;;;;;;;8.05;4.90;;;17.60;74.70;;;;;;5035337;28;20108;-76
2021/09/18 07:43:42;;;;;;;9.63;4.82;;;17.60;75.00;;;;;;5037268;28;20025;-77
2021/09/18 07:46:09;;;;;;;12.35;6.72;;;17.60;75.30;;;;;;5036654;28;20036;-76
2021/09/18 07:48:35;;;;;;;11.15;6.60;;;17.60;75.30;;;;;;5036599;28;20026;-77
2021/09/18 07:51:02;;;;;;;14.15;9.00;;;17.60;75.30;;;;;;5036036;28;20391;-81
2021/09/18 07:53:28;;;;;;;8.85;6.30;;;17.60;75.20;;;;;;5036363;28;20021;-80
2021/09/18 07:55:56;;;;;;;7.13;4.65;;;17.70;76.60;;;;;;5040765;28;20032;-81
2021/09/18 07:58:22;;;;;;;8.35;4.53;;;17.70;75.90;;;;;;5041038;28;20091;-80
2021/09/18 08:00:48;;;;;;;6.55;3.83;;;17.70;75.80;;;;;;5038569;28;20030;-82
2021/09/18 08:03:14;;;;;;;6.80;3.80;;;17.70;75.50;;;;;;5038322;28;20049;-83
2021/09/18 08:05:40;;;;;;;6.97;4.13;;;17.70;75.90;;;;;;5040168;28;20395;-83
2021/09/18 08:08:06;;;;;;;5.93;3.72;;;17.70;76.60;;;;;;5040752;28;20025;-84
2021/09/18 08:10:34;;;;;;;6.55;3.65;;;17.70;76.00;;;;;;5040310;28;20024;-82
2021/09/18 08:13:00;;;;;;;6.15;3.40;;;17.70;75.60;;;;;;5040830;28;20017;-82
2021/09/18 08:15:26;;;;;;;4.90;3.22;;;17.70;75.60;;;;;;5040383;28;20027;-83
2021/09/18 08:17:53;;;;;;;6.30;2.88;;;17.70;76.00;;;;;;5039518;28;20029;-83
2021/09/18 08:20:19;;;;;;;5.28;2.92;;;17.70;75.30;;;;;;5037650;28;20033;-83
2021/09/18 08:22:47;;;;;;;5.68;3.40;;;17.80;75.50;;;;;;5039357;28;20033;-83
2021/09/18 08:25:13;;;;;;;5.18;2.75;;;17.80;75.80;;;;;;5036144;28;20124;-82
2021/09/18 08:27:39;;;;;;;5.50;3.40;;;17.90;75.90;;;;;;5038602;28;20025;-82
2021/09/18 08:30:07;;;;;;;6.03;3.40;;;17.90;75.70;;;;;;5039924;28;20561;-81
2021/09/18 08:32:32;;;;;;;5.18;3.25;;;18.00;75.50;;;;;;5039039;28;20490;-83
2021/09/18 08:34:58;;;;;;;6.75;3.05;;;18.10;75.60;;;;;;5039621;28;20045;-75
2021/09/18 08:37:24;;;;;;;6.43;3.42;;;18.20;75.60;;;;;;5040060;28;20488;-81
2021/09/18 08:39:50;;;;;;;8.32;4.25;;;18.30;76.10;;;;;;5039872;28;20152;-80
2021/09/18 08:42:16;;;;;;;6.63;2.95;;;18.30;75.90;;;;;;5039935;28;20041;-81
2021/09/18 08:44:42;;;;;;;5.57;3.72;;;18.30;75.80;;;;;;5038521;28;20034;-81
2021/09/18 08:47:10;;;;;;;6.28;3.47;;;18.30;76.30;;;;;;5040054;28;20032;-81
2021/09/18 08:49:37;;;;;;;6.35;3.75;;;18.40;75.90;;;;;;5038158;28;20028;-80
2021/09/18 08:52:04;;;;;;;6.15;3.80;;;18.30;76.30;;;;;;5038475;28;20103;-78
2021/09/18 08:54:30;;;;;;;8.45;3.55;;;18.40;76.30;;;;;;5039337;28;20451;-81
2021/09/18 08:56:56;;;;;;;5.95;3.92;;;18.40;76.30;;;;;;5038760;28;20018;-81
2021/09/18 08:59:22;;;;;;;6.88;3.42;;;18.50;76.40;;;;;;5038235;28;20029;-81
2021/09/18 09:02:17;;;;;;;10.35;6.47;;;18.50;76.10;;;;;;5039769;28;20049;-83
2021/09/18 09:04:44;;;;;;;7.78;5.18;;;18.60;76.90;;;;;;5038835;28;20034;-80
2021/09/18 09:07:12;;;;;;;8.05;4.88;;;18.80;76.40;;;;;;5039229;28;20025;-86
2021/09/18 09:09:58;;;;;;;8.27;4.60;;;19.00;77.20;;;;;;5039365;28;20357;-82
2021/09/18 09:12:34;;;;;;;7.57;4.15;;;19.20;76.60;;;;;;5039304;28;20053;-83
2021/09/18 09:15:06;;;;;;;7.68;3.90;;;19.20;76.10;;;;;;5039399;28;20029;-82
2021/09/18 09:17:38;;;;;;;5.97;4.00;;;19.30;75.70;;;;;;5038041;28;20034;-82
2021/09/18 09:20:05;;;;;;;6.88;4.63;;;19.30;75.80;;;;;;5037901;28;20445;-82
2021/09/18 09:22:57;;;;;;;8.18;4.93;;;19.30;75.60;;;;;;5036849;28;22147;-81
2021/09/18 09:25:34;;;;;;;8.80;5.03;;;19.40;75.80;;;;;;5037335;28;20033;-85
2021/09/18 09:28:30;;;;;;;8.57;4.38;;;19.40;75.60;;;;;;5037797;28;20318;-83
2021/09/18 09:31:11;;;;;;;6.63;3.95;;;19.60;75.80;;;;;;5037545;28;20025;-83
2021/09/18 09:33:55;;;;;;;7.72;4.35;;;19.80;75.70;;;;;;5037712;28;20037;-83
2021/09/18 09:36:20;;;;;;;6.50;5.07;;;19.90;76.00;;;;;;5037470;28;20491;-85
2021/09/18 09:38:59;;;;;;;8.70;5.05;;;20.10;76.00;;;;;;5037768;28;20033;-83
2021/09/18 09:41:35;;;;;;;10.40;4.57;;;20.20;75.00;;;;;;5038933;28;20567;-82
2021/09/18 09:44:10;;;;;;;9.43;4.38;;;20.20;74.80;;;;;;5036509;28;20029;-82
2021/09/18 09:46:36;;;;;;;8.75;4.55;;;20.20;74.80;;;;;;5036652;28;20025;-82
2021/09/18 09:49:10;;;;;;;5.78;3.97;;;20.40;75.60;;;;;;5038513;28;20030;-83
2021/09/18 09:51:37;;;;;;;6.78;4.35;;;20.70;75.50;;;;;;5037771;28;20021;-82
2021/09/18 09:54:17;;;;;;;7.10;3.80;;;21.00;75.20;;;;;;5038552;28;20108;-82
2021/09/18 09:56:42;;;;;;;5.88;4.60;;;21.20;74.20;;;;;;5037266;28;20033;-82
2021/09/18 09:59:08;;;;;;;7.43;4.28;;;21.30;73.80;;;;;;5038425;28;20024;-84
2021/09/18 10:01:34;;;;;;;5.65;3.97;;;21.50;74.10;;;;;;5038516;28;20380;-82
2021/09/18 10:04:01;;;;;;;6.70;4.00;;;21.80;73.70;;;;;;5036204;28;20535;-82
2021/09/18 10:06:28;;;;;;;6.95;3.88;;;22.10;73.10;;;;;;5037745;28;20048;-83
2021/09/18 10:08:56;;;;;;;9.65;3.72;;;22.40;73.50;;;;;;5038180;28;20079;-83
2021/09/18 10:11:24;;;;;;;5.88;3.38;;;22.80;72.70;;;;;;5038331;28;20098;-80
2021/09/18 10:13:52;;;;;;;6.13;3.15;;;22.90;71.40;;;;;;5036281;28;20030;-79
2021/09/18 10:16:19;;;;;;;4.88;3.20;;;22.80;70.70;;;;;;5038004;28;20025;-79
2021/09/18 10:18:45;;;;;;;5.03;3.08;;;22.70;70.80;;;;;;5037903;28;20104;-79
2021/09/18 10:23:58;;;;;;;5.68;3.25;;;22.70;71.20;;;;;;5035708;28;20033;-78
2021/09/18 10:26:24;;;;;;;4.63;2.78;;;22.80;71.70;;;;;;5025756;28;20041;-79
2021/09/18 10:28:49;;;;;;;6.38;2.88;;;23.30;72.70;;;;;;5035568;28;20013;-78
2021/09/18 10:31:19;;;;;;;6.13;3.75;;;24.10;72.90;;;;;;5037655;28;20036;-78
2021/09/18 10:33:49;;;;;;;8.57;4.03;;;25.00;70.90;;;;;;5037549;28;20032;-78
2021/09/18 10:36:19;;;;;;;11.30;6.55;;;25.50;69.60;;;;;;5037566;28;20030;-78
2021/09/18 10:38:48;;;;;;;11.07;5.30;;;26.00;68.20;;;;;;5037273;28;20025;-79
2021/09/18 10:41:15;;;;;;;10.38;5.80;;;26.40;67.10;;;;;;5037582;28;20029;-78
2021/09/18 10:43:57;;;;;;;15.30;7.40;;;26.40;65.80;;;;;;5035588;28;20032;-76
2021/09/18 10:46:41;;;;;;;13.80;6.22;;;26.10;64.90;;;;;;5037235;28;20033;-80
2021/09/18 10:49:32;;;;;;;19.70;8.07;;;25.80;62.60;;;;;;5038064;28;20491;-79
2021/09/18 10:52:16;;;;;;;18.63;7.57;;;25.50;62.80;;;;;;5037585;28;20036;-79
2021/09/18 10:55:02;;;;;;;18.20;7.82;;;25.30;64.10;;;;;;5037195;28;20026;-79
2021/09/18 10:57:38;;;;;;;35.40;25.08;;;25.20;63.90;;;;;;5029115;28;20034;-79
2021/09/18 11:00:07;;;;;;;18.10;11.20;;;25.00;63.10;;;;;;5037463;28;20070;-78
2021/09/18 11:02:33;;;;;;;8.10;4.50;;;24.80;63.20;;;;;;5034998;28;20025;-78
2021/09/18 11:04:59;;;;;;;5.10;2.42;;;24.60;63.70;;;;;;5036046;28;20032;-78
2021/09/18 11:07:40;;;;;;;5.93;2.40;;;24.30;63.80;;;;;;5037515;28;20053;-78
2021/09/18 11:10:19;;;;;;;4.13;2.03;;;24.00;64.00;;;;;;5037187;28;20022;-78
2021/09/18 11:13:07;;;;;;;7.47;2.60;;;23.80;64.40;;;;;;5037200;28;20052;-79
2021/09/18 11:15:39;;;;;;;5.97;3.25;;;23.60;65.00;;;;;;5036984;28;20061;-81
2021/09/18 11:18:36;;;;;;;5.10;2.28;;;23.60;65.90;;;;;;5037169;28;20116;-79
2021/09/18 11:21:14;;;;;;;11.82;6.75;;;23.60;66.40;;;;;;5036988;28;20156;-77
2021/09/18 11:23:48;;;;;;;27.88;16.52;;;23.60;66.40;;;;;;5034345;28;20053;-80
2021/09/18 11:26:33;;;;;;;25.10;15.05;;;23.80;67.10;;;;;;5036531;28;20021;-79
2021/09/18 11:29:20;;;;;;;15.02;7.90;;;24.00;67.10;;;;;;5039024;28;20473;-83
2021/09/18 11:32:07;;;;;;;4.78;1.60;;;24.40;66.80;;;;;;5039293;28;20136;-78
2021/09/18 11:34:35;;;;;;;2.90;0.82;;;24.80;64.00;;;;;;5038923;28;20053;-78
2021/09/18 11:37:04;;;;;;;1.98;0.68;;;25.00;63.50;;;;;;5040672;28;20017;-82
2021/09/18 11:39:45;;;;;;;2.53;0.88;;;25.00;62.80;;;;;;5039478;28;20045;-77
2021/09/18 11:42:27;;;;;;;3.08;0.98;;;25.00;62.90;;;;;;5040600;28;20017;-78
2021/09/18 11:45:06;;;;;;;5.72;2.20;;;25.00;63.60;;;;;;5037802;28;20029;-78
2021/09/18 11:47:35;;;;;;;3.13;1.08;;;25.20;61.40;;;;;;5040403;28;20024;-77
2021/09/18 11:50:16;;;;;;;4.10;1.23;;;25.30;60.60;;;;;;5039807;28;20480;-71
2021/09/18 11:52:42;;;;;;;3.25;1.23;;;25.50;61.50;;;;;;5039801;28;20096;-72
2021/09/18 11:55:25;;;;;;;20.02;15.05;;;26.00;61.20;;;;;;5040378;28;20025;-73
2021/09/18 11:58:01;;;;;;;22.13;19.27;;;26.50;60.80;;;;;;5040394;28;20152;-71
2021/09/18 12:00:27;;;;;;;7.40;4.40;;;26.80;59.80;;;;;;5040165;28;20029;-69
2021/09/18 12:02:57;;;;;;;8.82;4.93;;;26.90;59.00;;;;;;5037532;28;20024;-73
2021/09/18 12:05:23;;;;;;;6.60;4.60;;;26.90;58.60;;;;;;5039368;28;20052;-71
2021/09/18 12:07:51;;;;;;;15.88;8.02;;;27.10;58.60;;;;;;5039723;28;20021;-73
2021/09/18 12:10:19;;;;;;;8.85;5.22;;;27.30;57.40;;;;;;5039907;28;20431;-69
2021/09/18 12:12:46;;;;;;;2.63;1.02;;;27.50;57.20;;;;;;5039815;28;20037;-69
2021/09/18 12:15:12;;;;;;;3.75;1.40;;;27.50;56.10;;;;;;5039701;28;20502;-70
2021/09/18 12:17:40;;;;;;;4.03;1.60;;;27.40;55.50;;;;;;5040135;28;20076;-70
2021/09/18 12:20:11;;;;;;;3.20;1.30;;;27.30;55.10;;;;;;5039383;28;20037;-69
2021/09/18 12:22:37;;;;;;;3.30;0.70;;;27.10;55.70;;;;;;5037531;28;20101;-70
2021/09/18 12:25:03;;;;;;;2.70;0.90;;;27.10;55.40;;;;;;5039528;28;20033;-68
2021/09/18 12:27:32;;;;;;;2.72;0.70;;;27.10;55.60;;;;;;5039863;28;20025;-70
2021/09/18 12:30:08;;;;;;;2.20;0.68;;;27.00;55.50;;;;;;5039186;28;20064;-69
2021/09/18 12:32:35;;;;;;;4.15;1.20;;;26.90;55.40;;;;;;5039439;28;20021;-70
2021/09/18 12:35:06;;;;;;;3.58;1.20;;;26.70;55.00;;;;;;5037734;28;20061;-71
2021/09/18 12:37:35;;;;;;;3.83;0.70;;;26.60;55.30;;;;;;5038362;28;20487;-73
2021/09/18 12:40:19;;;;;;;4.20;0.80;;;26.40;55.80;;;;;;5037594;28;20029;-75
2021/09/18 12:43:05;;;;;;;11.48;8.35;;;26.20;55.90;;;;;;5035763;28;20483;-78
2021/09/18 12:45:34;;;;;;;4.35;2.03;;;25.80;56.90;;;;;;5027014;28;20041;-79
2021/09/18 12:48:10;;;;;;;12.65;8.80;;;25.60;57.90;;;;;;5038049;28;20026;-75
2021/09/18 12:50:57;;;;;;;19.58;15.23;;;25.30;58.40;;;;;;5037913;28;20048;-74
2021/09/18 12:53:27;;;;;;;17.10;11.93;;;25.20;59.20;;;;;;5037479;28;20026;-76